createdAt,value
2023-05-19T00:00:42.052Z,408.00
2023-05-19T00:01:42.071Z,406.00
2023-05-19T00:02:42.244Z,407.00
2023-05-19T00:03:42.137Z,407.00
2023-05-19T00:04:42.130Z,407.00
2023-05-19T00:05:42.184Z,406.00
2023-05-19T00:06:42.163Z,408.00
2023-05-19T00:07:42.153Z,411.00
2023-05-19T00:08:42.149Z,410.00
2023-05-19T00:09:42.208Z,411.00
2023-05-19T00:10:42.223Z,412.00
2023-05-19T00:11:42.203Z,412.00
2023-05-19T00:12:42.237Z,410.00
2023-05-19T00:13:42.246Z,408.00
2023-05-19T00:14:42.251Z,408.00
2023-05-19T00:15:42.302Z,407.00
2023-05-19T00:16:42.293Z,409.00
2023-05-19T00:17:42.416Z,411.00
2023-05-19T00:18:42.343Z,410.00
2023-05-19T00:19:42.320Z,412.00
2023-05-19T00:20:42.338Z,414.00
2023-05-19T00:21:42.402Z,412.00
2023-05-19T00:22:42.370Z,411.00
2023-05-19T00:23:42.389Z,409.00
2023-05-19T00:24:42.364Z,408.00
2023-05-19T00:25:42.427Z,408.00
2023-05-19T00:26:42.394Z,408.00
2023-05-19T00:27:42.434Z,408.00
2023-05-19T00:28:42.450Z,408.00
2023-05-19T00:29:42.485Z,409.00
2023-05-19T00:30:42.484Z,412.00
2023-05-19T00:31:42.554Z,412.00
2023-05-19T00:32:42.579Z,412.00
2023-05-19T00:33:42.551Z,412.00
2023-05-19T00:34:42.535Z,412.00
2023-05-19T00:35:42.563Z,412.00
2023-05-19T00:36:42.569Z,412.00
2023-05-19T00:37:42.606Z,412.00
2023-05-19T00:38:42.614Z,412.00
2023-05-19T00:39:42.617Z,412.00
2023-05-19T00:40:42.630Z,414.00
2023-05-19T00:41:42.628Z,412.00
2023-05-19T00:42:42.649Z,411.00
2023-05-19T00:43:42.651Z,410.00
2023-05-19T00:44:42.687Z,410.00
2023-05-19T00:45:42.718Z,410.00
2023-05-19T00:46:42.716Z,411.00
2023-05-19T00:47:42.756Z,410.00
2023-05-19T00:48:42.724Z,408.00
2023-05-19T00:49:42.725Z,409.00
2023-05-19T00:50:42.749Z,409.00
2023-05-19T00:51:42.778Z,409.00
2023-05-19T00:52:42.806Z,409.00
2023-05-19T00:53:42.817Z,407.00
2023-05-19T00:54:42.838Z,406.00
2023-05-19T00:55:42.846Z,409.00
2023-05-19T00:56:42.887Z,412.00
2023-05-19T00:57:42.877Z,411.00
2023-05-19T00:58:42.899Z,411.00
2023-05-19T00:59:42.909Z,410.00
2023-05-19T01:00:42.970Z,411.00
2023-05-19T01:01:42.971Z,411.00
2023-05-19T01:02:43.098Z,409.00
2023-05-19T01:03:43.145Z,407.00
2023-05-19T01:04:43.537Z,407.00
2023-05-19T01:05:43.001Z,407.00
2023-05-19T01:06:43.004Z,409.00
2023-05-19T01:07:43.037Z,408.00
2023-05-19T01:08:43.024Z,409.00
2023-05-19T01:09:43.078Z,410.00
2023-05-19T01:10:43.087Z,410.00
2023-05-19T01:11:43.102Z,410.00
2023-05-19T01:12:43.103Z,411.00
2023-05-19T01:13:43.155Z,411.00
2023-05-19T01:14:43.138Z,410.00
2023-05-19T01:15:43.137Z,409.00
2023-05-19T01:16:43.233Z,411.00
2023-05-19T01:17:43.191Z,410.00
2023-05-19T01:18:43.288Z,408.00
2023-05-19T01:19:43.263Z,408.00
2023-05-19T01:20:43.254Z,409.00
2023-05-19T01:21:43.268Z,407.00
2023-05-19T01:22:43.294Z,408.00
2023-05-19T01:23:43.341Z,405.00
2023-05-19T01:24:43.355Z,407.00
2023-05-19T01:25:43.390Z,406.00
2023-05-19T01:26:43.409Z,407.00
2023-05-19T01:27:43.408Z,409.00
2023-05-19T01:28:43.446Z,410.00
2023-05-19T01:29:43.441Z,411.00
2023-05-19T01:30:43.495Z,410.00
2023-05-19T01:31:43.531Z,409.00
2023-05-19T01:32:43.494Z,409.00
2023-05-19T01:33:43.542Z,412.00
2023-05-19T01:34:43.552Z,412.00
2023-05-19T01:35:43.614Z,412.00
2023-05-19T01:36:43.593Z,413.00
2023-05-19T01:37:43.630Z,414.00
2023-05-19T01:38:43.630Z,416.00
2023-05-19T01:39:43.683Z,416.00
2023-05-19T01:40:43.702Z,414.00
2023-05-19T01:41:43.706Z,414.00
2023-05-19T01:42:43.756Z,414.00
2023-05-19T01:43:43.826Z,416.00
2023-05-19T01:44:43.775Z,417.00
2023-05-19T01:45:43.900Z,417.00
2023-05-19T01:46:43.843Z,416.00
2023-05-19T01:47:43.889Z,417.00
2023-05-19T01:48:43.877Z,418.00
2023-05-19T01:49:43.880Z,421.00
2023-05-19T01:50:43.936Z,422.00
2023-05-19T01:51:43.961Z,422.00
2023-05-19T01:52:43.936Z,423.00
2023-05-19T01:53:43.970Z,423.00
2023-05-19T01:54:43.988Z,424.00
2023-05-19T01:55:44.002Z,420.00
2023-05-19T01:56:44.044Z,419.00
2023-05-19T01:57:44.057Z,417.00
2023-05-19T01:58:44.083Z,416.00
2023-05-19T01:59:44.069Z,415.00
2023-05-19T02:00:44.129Z,415.00
2023-05-19T02:01:44.193Z,416.00
2023-05-19T02:02:44.230Z,417.00
2023-05-19T02:03:44.206Z,419.00
2023-05-19T02:04:44.355Z,419.00
2023-05-19T02:05:44.212Z,417.00
2023-05-19T02:06:44.348Z,418.00
2023-05-19T02:07:44.258Z,419.00
2023-05-19T02:08:44.352Z,421.00
2023-05-19T02:09:44.301Z,419.00
2023-05-19T02:10:44.310Z,419.00
2023-05-19T02:11:44.360Z,416.00
2023-05-19T02:12:44.405Z,416.00
2023-05-19T02:13:44.393Z,416.00
2023-05-19T02:14:44.436Z,415.00
2023-05-19T02:15:44.462Z,416.00
2023-05-19T02:16:44.485Z,417.00
2023-05-19T02:17:44.495Z,417.00
2023-05-19T02:18:44.551Z,421.00
2023-05-19T02:19:45.315Z,421.00
2023-05-19T02:20:44.551Z,420.00
2023-05-19T02:21:44.591Z,422.00
2023-05-19T02:22:44.626Z,421.00
2023-05-19T02:23:44.660Z,423.00
2023-05-19T02:24:44.670Z,423.00
2023-05-19T02:25:44.698Z,422.00
2023-05-19T02:26:44.684Z,421.00
2023-05-19T02:27:44.799Z,420.00
2023-05-19T02:28:44.783Z,419.00
2023-05-19T02:29:44.776Z,418.00
2023-05-19T02:30:44.821Z,421.00
2023-05-19T02:31:44.848Z,422.00
2023-05-19T02:32:44.919Z,420.00
2023-05-19T02:33:44.892Z,420.00
2023-05-19T02:34:44.881Z,421.00
2023-05-19T02:35:44.893Z,421.00
2023-05-19T02:36:44.956Z,421.00
2023-05-19T02:37:44.979Z,421.00
2023-05-19T02:38:44.983Z,423.00
2023-05-19T02:39:45.008Z,424.00
2023-05-19T02:40:45.061Z,423.00
2023-05-19T02:41:45.092Z,421.00
2023-05-19T02:42:45.132Z,422.00
2023-05-19T02:43:45.209Z,422.00
2023-05-19T02:44:45.129Z,422.00
2023-05-19T02:45:45.144Z,424.00
2023-05-19T02:46:45.383Z,423.00
2023-05-19T02:47:45.235Z,421.00
2023-05-19T02:48:45.240Z,421.00
2023-05-19T02:49:45.250Z,421.00
2023-05-19T02:50:45.273Z,424.00
2023-05-19T02:51:45.303Z,423.00
2023-05-19T02:52:45.322Z,421.00
2023-05-19T02:53:45.380Z,422.00
2023-05-19T02:54:45.383Z,422.00
2023-05-19T02:55:45.399Z,425.00
2023-05-19T02:56:45.475Z,425.00
2023-05-19T02:57:45.479Z,424.00
2023-05-19T02:58:45.493Z,422.00
2023-05-19T02:59:45.549Z,423.00
2023-05-19T03:00:45.545Z,421.00
2023-05-19T03:01:45.641Z,419.00
2023-05-19T03:02:45.730Z,419.00
2023-05-19T03:03:45.752Z,419.00
2023-05-19T03:04:45.657Z,418.00
2023-05-19T03:05:45.667Z,418.00
2023-05-19T03:06:45.697Z,416.00
2023-05-19T03:07:45.747Z,416.00
2023-05-19T03:08:45.781Z,416.00
2023-05-19T03:09:45.803Z,417.00
2023-05-19T03:10:45.797Z,419.00
2023-05-19T03:11:45.871Z,417.00
2023-05-19T03:12:45.846Z,416.00
2023-05-19T03:13:45.861Z,417.00
2023-05-19T03:14:45.917Z,419.00
2023-05-19T03:15:45.999Z,419.00
2023-05-19T03:16:46.090Z,419.00
2023-05-19T03:17:46.093Z,418.00
2023-05-19T03:18:46.024Z,417.00
2023-05-19T03:19:46.008Z,417.00
2023-05-19T03:20:46.054Z,418.00
2023-05-19T03:21:46.050Z,418.00
2023-05-19T03:22:46.108Z,418.00
2023-05-19T03:23:46.106Z,418.00
2023-05-19T03:24:46.184Z,418.00
2023-05-19T03:25:46.187Z,418.00
2023-05-19T03:26:46.222Z,418.00
2023-05-19T03:27:46.253Z,418.00
2023-05-19T03:28:46.248Z,418.00
2023-05-19T03:29:46.390Z,419.00
2023-05-19T03:30:46.333Z,420.00
2023-05-19T03:31:46.368Z,419.00
2023-05-19T03:32:46.394Z,418.00
2023-05-19T03:33:46.394Z,417.00
2023-05-19T03:34:46.439Z,417.00
2023-05-19T03:35:46.449Z,417.00
2023-05-19T03:36:46.573Z,418.00
2023-05-19T03:37:46.508Z,421.00
2023-05-19T03:38:46.555Z,423.00
2023-05-19T03:39:46.567Z,424.00
2023-05-19T03:40:46.640Z,426.00
2023-05-19T03:41:46.634Z,425.00
2023-05-19T03:42:46.678Z,426.00
2023-05-19T03:43:46.709Z,424.00
2023-05-19T03:44:46.715Z,423.00
2023-05-19T03:45:46.781Z,423.00
2023-05-19T03:46:46.801Z,423.00
2023-05-19T03:47:46.832Z,421.00
2023-05-19T03:48:46.837Z,420.00
2023-05-19T03:49:46.849Z,420.00
2023-05-19T03:50:46.907Z,422.00
2023-05-19T03:51:46.904Z,420.00
2023-05-19T03:52:46.910Z,421.00
2023-05-19T03:53:46.996Z,421.00
2023-05-19T03:54:46.963Z,421.00
2023-05-19T03:55:47.026Z,423.00
2023-05-19T03:56:47.016Z,421.00
2023-05-19T03:57:47.075Z,422.00
2023-05-19T03:58:47.122Z,422.00
2023-05-19T03:59:47.129Z,421.00
2023-05-19T04:00:47.153Z,421.00
2023-05-19T04:01:47.184Z,421.00
2023-05-19T04:02:47.338Z,421.00
2023-05-19T04:03:47.317Z,421.00
2023-05-19T04:04:47.356Z,423.00
2023-05-19T04:05:47.273Z,422.00
2023-05-19T04:06:47.300Z,421.00
2023-05-19T04:07:47.338Z,421.00
2023-05-19T04:08:47.341Z,422.00
2023-05-19T04:09:47.385Z,423.00
2023-05-19T04:10:47.401Z,422.00
2023-05-19T04:11:47.449Z,421.00
2023-05-19T04:12:47.466Z,422.00
2023-05-19T04:13:47.452Z,422.00
2023-05-19T04:14:47.473Z,420.00
2023-05-19T04:15:47.479Z,422.00
2023-05-19T04:16:47.453Z,422.00
2023-05-19T04:17:47.495Z,422.00
2023-05-19T04:18:47.465Z,421.00
2023-05-19T04:19:47.398Z,420.00
2023-05-19T04:20:47.421Z,420.00
2023-05-19T04:21:47.405Z,420.00
2023-05-19T04:22:47.396Z,420.00
2023-05-19T04:23:47.409Z,420.00
2023-05-19T04:24:47.360Z,420.00
2023-05-19T04:25:47.353Z,420.00
2023-05-19T04:26:47.399Z,418.00
2023-05-19T04:27:47.350Z,420.00
2023-05-19T04:28:47.376Z,420.00
2023-05-19T04:29:47.361Z,419.00
2023-05-19T04:30:47.362Z,418.00
2023-05-19T04:31:47.392Z,420.00
2023-05-19T04:32:47.451Z,420.00
2023-05-19T04:33:47.414Z,421.00
2023-05-19T04:34:47.452Z,421.00
2023-05-19T04:35:47.471Z,421.00
2023-05-19T04:36:47.512Z,423.00
2023-05-19T04:37:47.538Z,423.00
2023-05-19T04:38:47.619Z,422.00
2023-05-19T04:39:47.593Z,423.00
2023-05-19T04:40:47.662Z,421.00
2023-05-19T04:41:47.659Z,423.00
2023-05-19T04:42:47.727Z,422.00
2023-05-19T04:43:47.736Z,419.00
2023-05-19T04:44:47.760Z,415.00
2023-05-19T04:45:47.801Z,415.00
2023-05-19T04:46:47.893Z,415.00
2023-05-19T04:47:47.883Z,415.00
2023-05-19T04:48:47.840Z,416.00
2023-05-19T04:49:47.892Z,416.00
2023-05-19T04:50:47.901Z,416.00
2023-05-19T04:51:47.972Z,416.00
2023-05-19T04:52:47.996Z,418.00
2023-05-19T04:53:48.015Z,418.00
2023-05-19T04:54:48.015Z,418.00
2023-05-19T04:55:48.069Z,418.00
2023-05-19T04:56:48.092Z,419.00
2023-05-19T04:57:48.135Z,419.00
2023-05-19T04:58:48.145Z,418.00
2023-05-19T04:59:48.173Z,419.00
2023-05-19T05:00:48.191Z,420.00
2023-05-19T05:01:48.312Z,421.00
2023-05-19T05:02:48.355Z,422.00
2023-05-19T05:03:48.308Z,423.00
2023-05-19T05:04:48.297Z,422.00
2023-05-19T05:05:48.331Z,421.00
2023-05-19T05:06:48.381Z,419.00
2023-05-19T05:07:48.399Z,418.00
2023-05-19T05:08:48.436Z,419.00
2023-05-19T05:09:48.438Z,419.00
2023-05-19T05:10:48.476Z,417.00
2023-05-19T05:11:48.486Z,416.00
2023-05-19T05:12:48.511Z,415.00
2023-05-19T05:13:49.416Z,416.00
2023-05-19T05:14:48.591Z,417.00
2023-05-19T05:15:48.616Z,415.00
2023-05-19T05:16:48.698Z,413.00
2023-05-19T05:17:48.688Z,413.00
2023-05-19T05:18:48.762Z,413.00
2023-05-19T05:19:48.750Z,411.00
2023-05-19T05:20:48.748Z,409.00
2023-05-19T05:21:48.732Z,408.00
2023-05-19T05:22:48.767Z,408.00
2023-05-19T05:23:48.799Z,408.00
2023-05-19T05:24:48.825Z,408.00
2023-05-19T05:25:48.830Z,408.00
2023-05-19T05:26:48.883Z,410.00
2023-05-19T05:27:48.876Z,409.00
2023-05-19T05:28:48.929Z,410.00
2023-05-19T05:29:49.802Z,410.00
2023-05-19T05:30:49.003Z,412.00
2023-05-19T05:31:48.983Z,415.00
2023-05-19T05:32:49.058Z,415.00
2023-05-19T05:33:49.090Z,415.00
2023-05-19T05:34:49.091Z,413.00
2023-05-19T05:35:49.100Z,415.00
2023-05-19T05:36:49.126Z,415.00
2023-05-19T05:37:49.142Z,415.00
2023-05-19T05:38:49.158Z,414.00
2023-05-19T05:39:49.220Z,413.00
2023-05-19T05:40:49.245Z,412.00
2023-05-19T05:41:49.271Z,412.00
2023-05-19T05:42:49.286Z,411.00
2023-05-19T05:43:49.324Z,411.00
2023-05-19T05:44:49.312Z,411.00
2023-05-19T05:45:49.393Z,409.00
2023-05-19T05:46:49.366Z,408.00
2023-05-19T05:47:49.392Z,407.00
2023-05-19T05:48:49.430Z,405.00
2023-05-19T05:49:50.598Z,404.00
2023-05-19T05:50:49.642Z,403.00
2023-05-19T05:52:01.943Z,403.00
2023-05-19T05:52:50.681Z,406.00
2023-05-19T05:53:49.668Z,406.00
2023-05-19T05:54:49.671Z,407.00
2023-05-19T05:55:49.683Z,407.00
2023-05-19T05:56:49.655Z,408.00
2023-05-19T05:57:49.648Z,409.00
2023-05-19T05:58:49.698Z,408.00
2023-05-19T05:59:49.658Z,406.00
2023-05-19T06:00:49.629Z,405.00
2023-05-19T06:01:49.661Z,405.00
2023-05-19T06:02:49.698Z,402.00
2023-05-19T06:03:49.656Z,400.00
2023-05-19T06:04:49.590Z,401.00
2023-05-19T06:05:49.685Z,400.00
2023-05-19T06:06:49.614Z,399.00
2023-05-19T06:07:49.623Z,401.00
2023-05-19T06:08:49.585Z,401.00
2023-05-19T06:09:49.602Z,399.00
2023-05-19T06:10:49.590Z,400.00
2023-05-19T06:11:49.578Z,401.00
2023-05-19T06:12:49.550Z,403.00
2023-05-19T06:13:49.543Z,408.00
2023-05-19T06:14:49.544Z,407.00
2023-05-19T06:15:49.562Z,407.00
2023-05-19T06:16:49.566Z,407.00
2023-05-19T06:17:49.642Z,408.00
2023-05-19T06:18:49.594Z,407.00
2023-05-19T06:19:49.625Z,408.00
2023-05-19T06:20:49.596Z,409.00
2023-05-19T06:21:49.611Z,407.00
2023-05-19T06:22:49.666Z,405.00
2023-05-19T06:23:49.670Z,406.00
2023-05-19T06:24:49.702Z,406.00
2023-05-19T06:25:49.675Z,406.00
2023-05-19T06:26:49.691Z,405.00
2023-05-19T06:27:49.687Z,405.00
2023-05-19T06:28:49.724Z,406.00
2023-05-19T06:29:49.748Z,406.00
2023-05-19T06:30:49.748Z,406.00
2023-05-19T06:31:49.846Z,404.00
2023-05-19T06:32:49.834Z,403.00
2023-05-19T06:33:49.825Z,402.00
2023-05-19T06:34:49.829Z,403.00
2023-05-19T06:35:49.827Z,402.00
2023-05-19T06:36:49.837Z,402.00
2023-05-19T06:37:49.835Z,400.00
2023-05-19T06:38:49.860Z,400.00
2023-05-19T06:39:49.879Z,400.00
2023-05-19T06:40:49.882Z,401.00
2023-05-19T06:41:49.876Z,403.00
2023-05-19T06:42:49.914Z,404.00
2023-05-19T06:43:49.951Z,402.00
2023-05-19T06:44:49.952Z,401.00
2023-05-19T06:45:49.925Z,403.00
2023-05-19T06:46:50.004Z,402.00
2023-05-19T06:47:49.981Z,402.00
2023-05-19T06:48:49.979Z,402.00
2023-05-19T06:49:49.987Z,403.00
2023-05-19T06:50:49.996Z,403.00
2023-05-19T06:51:50.021Z,404.00
2023-05-19T06:52:50.035Z,404.00
2023-05-19T06:53:50.036Z,405.00
2023-05-19T06:54:50.026Z,405.00
2023-05-19T06:55:58.670Z,405.00
2023-05-19T06:56:51.029Z,405.00
2023-05-19T06:57:50.020Z,405.00
2023-05-19T06:58:49.992Z,404.00
2023-05-19T06:59:50.056Z,406.00
2023-05-19T07:00:49.998Z,407.00
2023-05-19T07:01:50.073Z,407.00
2023-05-19T07:02:50.102Z,409.00
2023-05-19T07:03:50.038Z,406.00
2023-05-19T07:04:49.978Z,406.00
2023-05-19T07:05:50.008Z,404.00
2023-05-19T07:06:49.962Z,402.00
2023-05-19T07:07:49.983Z,405.00
2023-05-19T07:08:49.947Z,408.00
2023-05-19T07:09:49.956Z,409.00
2023-05-19T07:10:49.977Z,408.00
2023-05-19T07:11:49.949Z,404.00
2023-05-19T07:12:49.933Z,404.00
2023-05-19T07:13:49.926Z,405.00
2023-05-19T07:14:49.955Z,404.00
2023-05-19T07:15:49.914Z,403.00
2023-05-19T07:16:49.979Z,404.00
2023-05-19T07:17:49.897Z,402.00
2023-05-19T07:18:49.903Z,402.00
2023-05-19T07:19:49.934Z,402.00
2023-05-19T07:20:49.884Z,401.00
2023-05-19T07:21:49.892Z,403.00
2023-05-19T07:22:49.855Z,405.00
2023-05-19T07:23:49.844Z,406.00
2023-05-19T07:24:49.861Z,406.00
2023-05-19T07:25:49.826Z,405.00
2023-05-19T07:26:49.841Z,404.00
2023-05-19T07:27:49.830Z,403.00
2023-05-19T07:28:49.805Z,402.00
2023-05-19T07:29:49.814Z,402.00
2023-05-19T07:30:49.808Z,402.00
2023-05-19T07:31:49.807Z,402.00
2023-05-19T07:32:49.808Z,402.00
2023-05-19T07:33:50.721Z,403.00
2023-05-19T07:34:49.774Z,404.00
2023-05-19T07:35:49.780Z,406.00
2023-05-19T07:36:49.786Z,406.00
2023-05-19T07:37:49.769Z,408.00
2023-05-19T07:38:49.778Z,408.00
2023-05-19T07:39:49.749Z,407.00
2023-05-19T07:40:49.759Z,406.00
2023-05-19T07:41:49.727Z,403.00
2023-05-19T07:42:49.719Z,402.00
2023-05-19T07:43:49.706Z,400.00
2023-05-19T07:44:49.686Z,402.00
2023-05-19T07:45:49.750Z,404.00
2023-05-19T07:46:49.709Z,403.00
2023-05-19T07:47:49.793Z,402.00
2023-05-19T07:48:49.670Z,401.00
2023-05-19T07:49:51.141Z,402.00
2023-05-19T07:50:49.669Z,402.00
2023-05-19T07:51:49.680Z,400.00
2023-05-19T07:52:49.633Z,399.00
2023-05-19T07:53:49.689Z,398.00
2023-05-19T07:54:49.654Z,400.00
2023-05-19T07:55:49.661Z,402.00
2023-05-19T07:56:49.643Z,403.00
2023-05-19T07:57:49.619Z,404.00
2023-05-19T07:58:49.630Z,404.00
2023-05-19T07:59:49.590Z,405.00
2023-05-19T08:00:49.606Z,407.00
2023-05-19T08:01:49.614Z,407.00
2023-05-19T08:02:49.640Z,407.00
2023-05-19T08:03:49.747Z,407.00
2023-05-19T08:04:49.645Z,406.00
2023-05-19T08:05:49.570Z,407.00
2023-05-19T08:06:49.600Z,408.00
2023-05-19T08:07:49.576Z,409.00
2023-05-19T08:08:49.586Z,409.00
2023-05-19T08:09:49.594Z,410.00
2023-05-19T08:10:49.589Z,410.00
2023-05-19T08:11:49.612Z,409.00
2023-05-19T08:12:49.608Z,406.00
2023-05-19T08:13:49.632Z,405.00
2023-05-19T08:14:49.632Z,404.00
2023-05-19T08:15:49.753Z,406.00
2023-05-19T08:16:50.015Z,405.00
2023-05-19T08:17:49.697Z,402.00
2023-05-19T08:18:49.705Z,400.00
2023-05-19T08:19:49.672Z,401.00
2023-05-19T08:20:49.677Z,402.00
2023-05-19T08:21:49.706Z,403.00
2023-05-19T08:22:49.642Z,403.00
2023-05-19T08:23:49.687Z,402.00
2023-05-19T08:24:49.697Z,403.00
2023-05-19T08:25:49.695Z,404.00
2023-05-19T08:26:49.721Z,405.00
2023-05-19T08:27:49.670Z,405.00
2023-05-19T08:28:49.698Z,404.00
2023-05-19T08:29:49.729Z,403.00
2023-05-19T08:30:49.749Z,403.00
2023-05-19T08:31:49.810Z,404.00
2023-05-19T08:32:49.812Z,404.00
2023-05-19T08:33:49.821Z,405.00
2023-05-19T08:34:49.857Z,403.00
2023-05-19T08:35:49.890Z,401.00
2023-05-19T08:36:49.937Z,401.00
2023-05-19T08:37:49.954Z,400.00
2023-05-19T08:38:49.998Z,398.00
2023-05-19T08:39:50.061Z,397.00
2023-05-19T08:40:50.126Z,400.00
2023-05-19T08:41:50.166Z,400.00
2023-05-19T08:42:50.207Z,401.00
2023-05-19T08:43:50.273Z,401.00
2023-05-19T08:44:50.353Z,399.00
2023-05-19T08:45:50.411Z,399.00
2023-05-19T08:46:50.587Z,398.00
2023-05-19T08:47:50.556Z,397.00
2023-05-19T08:48:50.589Z,398.00
2023-05-19T08:49:50.597Z,395.00
2023-05-19T08:50:50.709Z,396.00
2023-05-19T08:51:50.749Z,396.00
2023-05-19T08:52:52.846Z,394.00
2023-05-19T08:53:50.950Z,394.00
2023-05-19T08:54:50.994Z,395.00
2023-05-19T08:55:51.049Z,398.00
2023-05-19T08:56:51.124Z,401.00
2023-05-19T08:57:51.173Z,402.00
2023-05-19T08:58:51.261Z,403.00
2023-05-19T08:59:51.345Z,402.00
2023-05-19T09:00:51.435Z,402.00
2023-05-19T09:01:51.473Z,401.00
2023-05-19T09:03:00.966Z,402.00
2023-05-19T09:03:52.570Z,402.00
2023-05-19T09:04:51.527Z,400.00
2023-05-19T09:05:51.590Z,400.00
2023-05-19T09:06:51.464Z,401.00
2023-05-19T09:07:51.464Z,401.00
2023-05-19T09:08:51.444Z,404.00
2023-05-19T09:09:51.462Z,403.00
2023-05-19T09:10:51.426Z,404.00
2023-05-19T09:11:51.504Z,402.00
2023-05-19T09:12:51.627Z,402.00
2023-05-19T09:13:51.639Z,400.00
2023-05-19T09:14:51.693Z,398.00
2023-05-19T09:15:51.808Z,401.00
2023-05-19T09:16:51.894Z,402.00
2023-05-19T09:17:51.971Z,401.00
2023-05-19T09:18:51.924Z,400.00
2023-05-19T09:19:51.997Z,398.00
2023-05-19T09:20:52.033Z,398.00
2023-05-19T09:21:52.088Z,400.00
2023-05-19T09:22:52.185Z,400.00
2023-05-19T09:23:52.198Z,402.00
2023-05-19T09:24:52.297Z,405.00
2023-05-19T09:25:52.375Z,407.00
2023-05-19T09:26:52.416Z,408.00
2023-05-19T09:27:52.467Z,408.00
2023-05-19T09:28:52.489Z,406.00
2023-05-19T09:29:52.568Z,405.00
2023-05-19T09:30:52.665Z,405.00
2023-05-19T09:31:52.747Z,404.00
2023-05-19T09:32:52.761Z,403.00
2023-05-19T09:33:52.789Z,405.00
2023-05-19T09:34:52.838Z,407.00
2023-05-19T09:35:52.885Z,408.00
2023-05-19T09:36:52.951Z,408.00
2023-05-19T09:37:52.998Z,407.00
2023-05-19T09:38:53.074Z,406.00
2023-05-19T09:39:53.245Z,406.00
2023-05-19T09:40:53.174Z,406.00
2023-05-19T09:41:53.195Z,406.00
2023-05-19T09:42:53.278Z,405.00
2023-05-19T09:43:53.305Z,405.00
2023-05-19T09:44:53.398Z,403.00
2023-05-19T09:45:53.437Z,403.00
2023-05-19T09:46:53.501Z,403.00
2023-05-19T09:47:53.546Z,403.00
2023-05-19T09:48:53.602Z,404.00
2023-05-19T09:49:53.635Z,403.00
2023-05-19T09:50:53.686Z,405.00
2023-05-19T09:51:53.778Z,407.00
2023-05-19T09:52:53.793Z,408.00
2023-05-19T09:53:53.837Z,408.00
2023-05-19T09:54:53.861Z,407.00
2023-05-19T09:55:53.993Z,405.00
2023-05-19T09:56:53.976Z,405.00
2023-05-19T09:57:54.019Z,404.00
2023-05-19T09:58:54.150Z,403.00
2023-05-19T09:59:54.099Z,400.00
2023-05-19T10:00:54.175Z,402.00
2023-05-19T10:01:54.350Z,403.00
2023-05-19T10:02:54.405Z,402.00
2023-05-19T10:03:54.344Z,405.00
2023-05-19T10:04:54.376Z,405.00
2023-05-19T10:05:54.389Z,406.00
2023-05-19T10:06:54.432Z,406.00
2023-05-19T10:07:54.481Z,406.00
2023-05-19T10:08:54.498Z,408.00
2023-05-19T10:09:55.733Z,409.00
2023-05-19T10:10:54.557Z,407.00
2023-05-19T10:11:54.623Z,407.00
2023-05-19T10:12:54.654Z,405.00
2023-05-19T10:13:54.678Z,405.00
2023-05-19T10:14:54.720Z,404.00
2023-05-19T10:15:58.907Z,406.00
2023-05-19T10:16:54.922Z,406.00
2023-05-19T10:17:54.781Z,406.00
2023-05-19T10:18:54.751Z,407.00
2023-05-19T10:19:54.753Z,407.00
2023-05-19T10:20:54.742Z,407.00
2023-05-19T10:21:54.749Z,406.00
2023-05-19T10:22:54.695Z,406.00
2023-05-19T10:23:54.713Z,406.00
2023-05-19T10:24:54.721Z,405.00
2023-05-19T10:25:54.703Z,404.00
2023-05-19T10:26:54.692Z,403.00
2023-05-19T10:27:54.713Z,403.00
2023-05-19T10:28:54.678Z,406.00
2023-05-19T10:29:54.651Z,408.00
2023-05-19T10:30:54.661Z,408.00
2023-05-19T10:31:54.698Z,408.00
2023-05-19T10:32:54.676Z,407.00
2023-05-19T10:33:54.638Z,404.00
2023-05-19T10:34:54.682Z,405.00
2023-05-19T10:35:54.701Z,403.00
2023-05-19T10:36:54.765Z,398.00
2023-05-19T10:37:54.761Z,397.00
2023-05-19T10:38:54.806Z,399.00
2023-05-19T10:39:54.816Z,399.00
2023-05-19T10:40:54.854Z,399.00
2023-05-19T10:41:54.895Z,401.00
2023-05-19T10:42:54.898Z,403.00
2023-05-19T10:43:54.946Z,404.00
2023-05-19T10:44:54.996Z,403.00
2023-05-19T10:45:55.043Z,405.00
2023-05-19T10:46:56.799Z,405.00
2023-05-19T10:47:55.056Z,405.00
2023-05-19T10:48:55.076Z,404.00
2023-05-19T10:49:55.100Z,406.00
2023-05-19T10:50:55.182Z,408.00
2023-05-19T10:51:55.191Z,408.00
2023-05-19T10:52:55.188Z,409.00
2023-05-19T10:53:55.199Z,409.00
2023-05-19T10:54:55.233Z,408.00
2023-05-19T10:55:55.266Z,408.00
2023-05-19T10:56:55.304Z,408.00
2023-05-19T10:57:55.309Z,406.00
2023-05-19T10:58:55.317Z,407.00
2023-05-19T10:59:55.360Z,407.00
2023-05-19T11:00:55.376Z,408.00
2023-05-19T11:01:55.474Z,410.00
2023-05-19T11:02:55.454Z,409.00
2023-05-19T11:03:55.491Z,408.00
2023-05-19T11:04:55.489Z,406.00
2023-05-19T11:05:55.508Z,404.00
2023-05-19T11:06:55.543Z,408.00
2023-05-19T11:07:55.579Z,408.00
2023-05-19T11:08:55.604Z,408.00
2023-05-19T11:09:55.599Z,408.00
2023-05-19T11:10:55.648Z,407.00
2023-05-19T11:11:55.687Z,408.00
2023-05-19T11:12:55.679Z,408.00
2023-05-19T11:13:55.735Z,408.00
2023-05-19T11:14:55.956Z,408.00
2023-05-19T11:15:55.785Z,408.00
2023-05-19T11:16:55.917Z,409.00
2023-05-19T11:17:55.993Z,408.00
2023-05-19T11:18:55.927Z,404.00
2023-05-19T11:19:55.925Z,403.00
2023-05-19T11:20:55.994Z,402.00
2023-05-19T11:21:55.986Z,399.00
2023-05-19T11:22:56.067Z,399.00
2023-05-19T11:23:56.219Z,398.00
2023-05-19T11:24:56.056Z,397.00
2023-05-19T11:25:56.082Z,399.00
2023-05-19T11:26:56.113Z,399.00
2023-05-19T11:27:56.181Z,396.00
2023-05-19T11:28:56.181Z,397.00
2023-05-19T11:29:56.202Z,398.00
2023-05-19T11:30:56.213Z,400.00
2023-05-19T11:31:56.338Z,399.00
2023-05-19T11:32:56.328Z,402.00
2023-05-19T11:33:56.317Z,402.00
2023-05-19T11:34:56.338Z,403.00
2023-05-19T11:35:56.364Z,403.00
2023-05-19T11:36:56.376Z,404.00
2023-05-19T11:37:56.429Z,408.00
2023-05-19T11:38:56.457Z,409.00
2023-05-19T11:39:56.474Z,407.00
2023-05-19T11:40:56.495Z,409.00
2023-05-19T11:41:56.522Z,409.00
2023-05-19T11:42:56.577Z,410.00
2023-05-19T11:43:56.571Z,408.00
2023-05-19T11:44:56.583Z,405.00
2023-05-19T11:45:56.687Z,405.00
2023-05-19T11:46:56.709Z,403.00
2023-05-19T11:48:02.543Z,401.00
2023-05-19T11:48:57.698Z,403.00
2023-05-19T11:49:56.627Z,405.00
2023-05-19T11:50:56.649Z,404.00
2023-05-19T11:51:56.639Z,407.00
2023-05-19T11:52:56.609Z,405.00
2023-05-19T11:53:56.595Z,405.00
2023-05-19T11:54:56.678Z,404.00
2023-05-19T11:55:56.606Z,405.00
2023-05-19T11:56:56.625Z,406.00
2023-05-19T11:58:57.572Z,406.00
2023-05-19T11:59:56.557Z,405.00
2023-05-19T12:00:56.542Z,404.00
2023-05-19T12:01:56.551Z,404.00
2023-05-19T12:02:56.628Z,403.00
2023-05-19T12:03:56.719Z,404.00
2023-05-19T12:04:56.560Z,403.00
2023-05-19T12:05:56.635Z,399.00
2023-05-19T12:06:56.540Z,399.00
2023-05-19T12:07:56.528Z,399.00
2023-05-19T12:08:56.504Z,398.00
2023-05-19T12:09:56.513Z,399.00
2023-05-19T12:10:56.506Z,399.00
2023-05-19T12:11:56.486Z,398.00
2023-05-19T12:12:56.497Z,396.00
2023-05-19T12:13:56.452Z,396.00
2023-05-19T12:14:56.457Z,394.00
2023-05-19T12:15:56.529Z,394.00
2023-05-19T12:16:56.455Z,396.00
2023-05-19T12:17:56.453Z,398.00
2023-05-19T12:18:56.483Z,399.00
2023-05-19T12:19:56.419Z,398.00
2023-05-19T12:20:56.442Z,399.00
2023-05-19T12:21:56.487Z,397.00
2023-05-19T12:22:56.487Z,395.00
2023-05-19T12:23:56.487Z,397.00
2023-05-19T12:24:56.505Z,396.00
2023-05-19T12:25:56.517Z,396.00
2023-05-19T12:26:56.543Z,396.00
2023-05-19T12:27:58.012Z,396.00
2023-05-19T12:28:56.594Z,396.00
2023-05-19T12:29:56.612Z,396.00